Little Rock Air Force Base
KLRF : now visible

Airfield :











YOU CAN JOIN US ON...

 
LOGIN :

Register | Disclaimer

   EN    FR    IT 

 









Legend :    VFR   Marginal VFR   IFR   Intensive IFR   Very Intensive IFR
Visi :
Ceiling :
>= 8 km
>= 3000ft
5 to 8 km
1000 to 3000 ft
1500m to 5 km
500 to 1000 ft
800 to 1500m
200 to 500 ft
< 800m
< 200 ft
Symbols :   Thunderstorms  Fog  Heavy snow  Heavy precipitations  Wind > 20 kt







- Airport Elevation : 311 ft


KLRF - Little Rock Air Force Base

CURRENT METAR :
  • 210356Z 00000KT 10SM FEW210 24/22 A3013 RMK AO2A SLPNO ALSTG ESTMD $

EXPIRED METARs :
  • 210256Z 00000KT 10SM SCT070 OVC140 24/22 A3013 RMK AO2A SLPNO ALSTG ESTMD 60000 51014 $
  • 210156Z 00000KT 10SM BKN070 BKN200 24/22 A3011 RMK AO2A RAB05E15DZB15E20 SLPNO ALSTG ESTMD P0000 $

TAF TAF KLRF
Valid from the 20 at 23:00 until the 22 at 05:00 UTC


202300Z 2023/2205 VRB06KT 9999 FEW015 BKN100 QNH3009INS
BECMG 2114/2115 19010G15KT 9999 FEW040 SCT100 QNH3004INS
BECMG 2123/2124 VRB06KT 9999 FEW120 QNH3003INS TX30/2120Z TN21/2111Z
No reported NOTAMs for that airfield.



MET'MAP, your aeronautical weather chart ! - Copyright ORBIFLY December 2007 - Disclaimer

ORBIFLY MET'MAP TEAM :

Programming & Development : Alexandra Zaïnal
Concept & Development : Baudouin d'Aumeries
Co-Development & Prog : Marc-Olivier Méhu
Technical & hardware support : Manuel Goepfert

Contact : metmap@orbifly.com




SOURCES & CREDITS :

   NOAA       Earth
Advisory